sensor_id;sensor_type;location;lat;lon;timestamp;P1;durP1;ratioP1;P2;durP2;ratioP2
9222;SDS011;7557;51.698;3.942;2022-12-29T00:01:32;2.20;;;1.97;;
9222;SDS011;7557;51.698;3.942;2022-12-29T00:04:00;1.80;;;1.70;;
9222;SDS011;7557;51.698;3.942;2022-12-29T00:06:27;2.70;;;2.00;;
9222;SDS011;7557;51.698;3.942;2022-12-29T00:08:55;2.13;;;2.03;;
9222;SDS011;7557;51.698;3.942;2022-12-29T00:11:24;1.83;;;1.73;;
9222;SDS011;7557;51.698;3.942;2022-12-29T00:13:53;2.33;;;2.13;;
9222;SDS011;7557;51.698;3.942;2022-12-29T00:16:39;2.20;;;2.10;;
9222;SDS011;7557;51.698;3.942;2022-12-29T00:19:08;2.40;;;2.30;;
9222;SDS011;7557;51.698;3.942;2022-12-29T00:21:55;4.10;;;2.40;;
9222;SDS011;7557;51.698;3.942;2022-12-29T00:24:39;3.47;;;2.37;;
9222;SDS011;7557;51.698;3.942;2022-12-29T00:27:28;2.03;;;1.93;;
9222;SDS011;7557;51.698;3.942;2022-12-29T00:30:28;2.43;;;2.27;;
9222;SDS011;7557;51.698;3.942;2022-12-29T00:33:13;3.53;;;2.40;;
9222;SDS011;7557;51.698;3.942;2022-12-29T00:36:01;2.23;;;1.90;;
9222;SDS011;7557;51.698;3.942;2022-12-29T00:38:30;2.77;;;2.07;;
9222;SDS011;7557;51.698;3.942;2022-12-29T00:41:16;2.17;;;2.03;;
9222;SDS011;7557;51.698;3.942;2022-12-29T00:44:02;2.00;;;1.90;;
9222;SDS011;7557;51.698;3.942;2022-12-29T00:46:35;2.17;;;1.73;;
9222;SDS011;7557;51.698;3.942;2022-12-29T00:49:03;2.43;;;1.53;;
9222;SDS011;7557;51.698;3.942;2022-12-29T00:52:07;7.53;;;1.60;;
9222;SDS011;7557;51.698;3.942;2022-12-29T00:54:36;3.37;;;1.80;;
9222;SDS011;7557;51.698;3.942;2022-12-29T00:57:06;1.93;;;1.70;;
9222;SDS011;7557;51.698;3.942;2022-12-29T00:59:36;3.80;;;1.90;;
9222;SDS011;7557;51.698;3.942;2022-12-29T01:02:04;7.97;;;1.87;;
9222;SDS011;7557;51.698;3.942;2022-12-29T01:04:32;4.40;;;2.47;;
9222;SDS011;7557;51.698;3.942;2022-12-29T01:06:59;3.60;;;2.00;;
9222;SDS011;7557;51.698;3.942;2022-12-29T01:09:26;4.07;;;1.80;;
9222;SDS011;7557;51.698;3.942;2022-12-29T01:12:11;1.90;;;1.80;;
9222;SDS011;7557;51.698;3.942;2022-12-29T01:14:40;2.57;;;1.70;;
9222;SDS011;7557;51.698;3.942;2022-12-29T01:17:07;2.40;;;1.50;;
9222;SDS011;7557;51.698;3.942;2022-12-29T01:19:34;4.07;;;1.83;;
9222;SDS011;7557;51.698;3.942;2022-12-29T01:22:01;2.47;;;1.60;;
9222;SDS011;7557;51.698;3.942;2022-12-29T01:24:28;4.30;;;1.60;;
9222;SDS011;7557;51.698;3.942;2022-12-29T01:26:55;9.50;;;1.70;;
9222;SDS011;7557;51.698;3.942;2022-12-29T01:29:23;2.90;;;1.40;;
9222;SDS011;7557;51.698;3.942;2022-12-29T01:31:51;5.33;;;1.60;;
9222;SDS011;7557;51.698;3.942;2022-12-29T01:34:18;4.57;;;2.07;;
9222;SDS011;7557;51.698;3.942;2022-12-29T01:36:45;3.43;;;1.80;;
9222;SDS011;7557;51.698;3.942;2022-12-29T01:39:12;6.00;;;1.60;;
9222;SDS011;7557;51.698;3.942;2022-12-29T01:41:39;5.63;;;1.73;;
9222;SDS011;7557;51.698;3.942;2022-12-29T01:47:16;4.57;;;2.27;;
9222;SDS011;7557;51.698;3.942;2022-12-29T01:49:50;2.40;;;1.17;;
9222;SDS011;7557;51.698;3.942;2022-12-29T01:52:19;4.60;;;1.70;;
9222;SDS011;7557;51.698;3.942;2022-12-29T01:54:47;7.27;;;1.73;;
9222;SDS011;7557;51.698;3.942;2022-12-29T01:57:20;5.90;;;2.17;;
9222;SDS011;7557;51.698;3.942;2022-12-29T01:59:52;4.93;;;1.60;;
9222;SDS011;7557;51.698;3.942;2022-12-29T02:02:24;3.93;;;1.50;;
9222;SDS011;7557;51.698;3.942;2022-12-29T02:04:52;6.80;;;1.70;;
9222;SDS011;7557;51.698;3.942;2022-12-29T02:07:23;5.13;;;1.70;;
9222;SDS011;7557;51.698;3.942;2022-12-29T02:09:52;5.03;;;2.00;;
9222;SDS011;7557;51.698;3.942;2022-12-29T02:12:21;4.07;;;1.77;;
9222;SDS011;7557;51.698;3.942;2022-12-29T02:14:52;7.27;;;2.30;;
9222;SDS011;7557;51.698;3.942;2022-12-29T02:17:29;4.73;;;1.93;;
9222;SDS011;7557;51.698;3.942;2022-12-29T02:23:26;6.33;;;2.20;;
9222;SDS011;7557;51.698;3.942;2022-12-29T02:26:07;9.93;;;2.83;;
9222;SDS011;7557;51.698;3.942;2022-12-29T02:29:11;7.63;;;1.60;;
9222;SDS011;7557;51.698;3.942;2022-12-29T02:32:04;9.20;;;2.17;;
9222;SDS011;7557;51.698;3.942;2022-12-29T02:34:42;8.20;;;2.00;;
9222;SDS011;7557;51.698;3.942;2022-12-29T02:37:17;4.87;;;1.63;;
9222;SDS011;7557;51.698;3.942;2022-12-29T02:39:50;7.60;;;2.80;;
9222;SDS011;7557;51.698;3.942;2022-12-29T02:42:22;5.70;;;1.60;;
9222;SDS011;7557;51.698;3.942;2022-12-29T02:44:59;4.63;;;1.70;;
9222;SDS011;7557;51.698;3.942;2022-12-29T02:47:35;4.27;;;1.63;;
9222;SDS011;7557;51.698;3.942;2022-12-29T02:50:06;4.43;;;2.00;;
9222;SDS011;7557;51.698;3.942;2022-12-29T02:52:40;4.43;;;1.60;;
9222;SDS011;7557;51.698;3.942;2022-12-29T02:55:13;4.07;;;1.43;;
9222;SDS011;7557;51.698;3.942;2022-12-29T02:57:39;5.23;;;1.80;;
9222;SDS011;7557;51.698;3.942;2022-12-29T03:00:07;4.70;;;1.60;;
9222;SDS011;7557;51.698;3.942;2022-12-29T03:02:46;3.40;;;1.43;;
9222;SDS011;7557;51.698;3.942;2022-12-29T03:05:32;4.27;;;2.23;;
9222;SDS011;7557;51.698;3.942;2022-12-29T03:08:17;2.73;;;1.67;;
9222;SDS011;7557;51.698;3.942;2022-12-29T03:10:51;5.67;;;1.70;;
9222;SDS011;7557;51.698;3.942;2022-12-29T03:13:26;6.43;;;1.77;;
9222;SDS011;7557;51.698;3.942;2022-12-29T03:16:14;7.93;;;1.90;;
9222;SDS011;7557;51.698;3.942;2022-12-29T03:18:49;3.93;;;2.10;;
9222;SDS011;7557;51.698;3.942;2022-12-29T03:21:24;6.93;;;2.17;;
9222;SDS011;7557;51.698;3.942;2022-12-29T03:24:10;8.63;;;2.57;;
9222;SDS011;7557;51.698;3.942;2022-12-29T03:26:38;7.90;;;2.57;;
9222;SDS011;7557;51.698;3.942;2022-12-29T03:29:07;5.83;;;1.87;;
9222;SDS011;7557;51.698;3.942;2022-12-29T03:31:36;7.77;;;2.03;;
9222;SDS011;7557;51.698;3.942;2022-12-29T03:34:06;14.43;;;2.70;;
9222;SDS011;7557;51.698;3.942;2022-12-29T03:36:36;8.37;;;2.73;;
9222;SDS011;7557;51.698;3.942;2022-12-29T03:39:09;10.53;;;2.23;;
9222;SDS011;7557;51.698;3.942;2022-12-29T03:41:38;8.30;;;2.37;;
9222;SDS011;7557;51.698;3.942;2022-12-29T03:44:09;12.50;;;3.17;;
9222;SDS011;7557;51.698;3.942;2022-12-29T03:46:37;13.10;;;2.97;;
9222;SDS011;7557;51.698;3.942;2022-12-29T03:49:06;17.57;;;3.70;;
9222;SDS011;7557;51.698;3.942;2022-12-29T03:51:33;7.90;;;2.63;;
9222;SDS011;7557;51.698;3.942;2022-12-29T03:54:00;11.17;;;2.80;;
9222;SDS011;7557;51.698;3.942;2022-12-29T03:56:27;8.00;;;2.20;;
9222;SDS011;7557;51.698;3.942;2022-12-29T03:58:54;6.73;;;2.83;;
9222;SDS011;7557;51.698;3.942;2022-12-29T04:01:21;9.73;;;2.77;;
9222;SDS011;7557;51.698;3.942;2022-12-29T04:03:48;12.07;;;2.90;;
9222;SDS011;7557;51.698;3.942;2022-12-29T04:06:17;5.53;;;2.50;;
9222;SDS011;7557;51.698;3.942;2022-12-29T04:08:44;7.60;;;3.23;;
9222;SDS011;7557;51.698;3.942;2022-12-29T04:11:11;10.90;;;3.33;;
9222;SDS011;7557;51.698;3.942;2022-12-29T04:13:38;6.67;;;2.07;;
9222;SDS011;7557;51.698;3.942;2022-12-29T04:16:06;10.53;;;2.57;;
9222;SDS011;7557;51.698;3.942;2022-12-29T04:18:34;15.60;;;3.43;;
9222;SDS011;7557;51.698;3.942;2022-12-29T04:21:01;11.67;;;3.57;;
9222;SDS011;7557;51.698;3.942;2022-12-29T04:23:32;10.20;;;1.97;;
9222;SDS011;7557;51.698;3.942;2022-12-29T04:26:00;5.60;;;2.23;;
9222;SDS011;7557;51.698;3.942;2022-12-29T04:28:27;9.87;;;2.63;;
9222;SDS011;7557;51.698;3.942;2022-12-29T04:30:54;8.87;;;3.07;;
9222;SDS011;7557;51.698;3.942;2022-12-29T04:33:22;10.90;;;2.80;;
9222;SDS011;7557;51.698;3.942;2022-12-29T04:35:49;7.80;;;2.57;;
9222;SDS011;7557;51.698;3.942;2022-12-29T04:38:18;9.93;;;3.60;;
9222;SDS011;7557;51.698;3.942;2022-12-29T04:40:46;10.63;;;2.60;;
9222;SDS011;7557;51.698;3.942;2022-12-29T04:43:14;10.53;;;3.00;;
9222;SDS011;7557;51.698;3.942;2022-12-29T04:45:44;10.53;;;2.87;;
9222;SDS011;7557;51.698;3.942;2022-12-29T04:48:11;18.50;;;3.37;;
9222;SDS011;7557;51.698;3.942;2022-12-29T04:50:40;11.07;;;3.10;;
9222;SDS011;7557;51.698;3.942;2022-12-29T04:53:07;9.63;;;2.87;;
9222;SDS011;7557;51.698;3.942;2022-12-29T04:55:34;15.93;;;3.83;;
9222;SDS011;7557;51.698;3.942;2022-12-29T04:58:03;16.17;;;3.73;;
9222;SDS011;7557;51.698;3.942;2022-12-29T05:00:30;13.00;;;4.03;;
9222;SDS011;7557;51.698;3.942;2022-12-29T05:02:57;14.93;;;4.03;;
9222;SDS011;7557;51.698;3.942;2022-12-29T05:05:25;11.23;;;3.40;;
9222;SDS011;7557;51.698;3.942;2022-12-29T05:07:52;17.70;;;4.17;;
9222;SDS011;7557;51.698;3.942;2022-12-29T05:10:19;9.67;;;3.10;;
9222;SDS011;7557;51.698;3.942;2022-12-29T05:12:46;21.20;;;4.60;;
9222;SDS011;7557;51.698;3.942;2022-12-29T05:15:15;10.67;;;3.50;;
9222;SDS011;7557;51.698;3.942;2022-12-29T05:17:42;14.37;;;3.00;;
9222;SDS011;7557;51.698;3.942;2022-12-29T05:20:09;11.47;;;2.63;;
9222;SDS011;7557;51.698;3.942;2022-12-29T05:22:36;12.63;;;3.10;;
9222;SDS011;7557;51.698;3.942;2022-12-29T05:25:04;12.43;;;3.87;;
9222;SDS011;7557;51.698;3.942;2022-12-29T05:27:31;11.57;;;3.00;;
9222;SDS011;7557;51.698;3.942;2022-12-29T05:29:59;12.10;;;2.87;;
9222;SDS011;7557;51.698;3.942;2022-12-29T05:32:27;7.97;;;3.43;;
9222;SDS011;7557;51.698;3.942;2022-12-29T05:34:54;14.47;;;3.83;;
9222;SDS011;7557;51.698;3.942;2022-12-29T05:37:21;11.17;;;2.50;;
9222;SDS011;7557;51.698;3.942;2022-12-29T05:39:49;11.17;;;3.30;;
9222;SDS011;7557;51.698;3.942;2022-12-29T05:42:16;10.93;;;3.20;;
9222;SDS011;7557;51.698;3.942;2022-12-29T05:44:43;10.00;;;2.90;;
9222;SDS011;7557;51.698;3.942;2022-12-29T05:47:10;13.20;;;3.10;;
9222;SDS011;7557;51.698;3.942;2022-12-29T05:49:38;14.37;;;2.93;;
9222;SDS011;7557;51.698;3.942;2022-12-29T05:52:05;10.43;;;2.43;;
9222;SDS011;7557;51.698;3.942;2022-12-29T05:54:32;8.80;;;2.63;;
9222;SDS011;7557;51.698;3.942;2022-12-29T05:56:59;11.63;;;2.87;;
9222;SDS011;7557;51.698;3.942;2022-12-29T05:59:26;14.50;;;3.27;;
9222;SDS011;7557;51.698;3.942;2022-12-29T06:01:53;15.93;;;4.30;;
9222;SDS011;7557;51.698;3.942;2022-12-29T06:04:20;9.47;;;2.93;;
9222;SDS011;7557;51.698;3.942;2022-12-29T06:06:49;11.03;;;3.37;;
9222;SDS011;7557;51.698;3.942;2022-12-29T06:09:16;16.00;;;3.23;;
9222;SDS011;7557;51.698;3.942;2022-12-29T06:11:43;15.90;;;3.17;;
9222;SDS011;7557;51.698;3.942;2022-12-29T06:14:10;14.83;;;2.53;;
9222;SDS011;7557;51.698;3.942;2022-12-29T06:16:37;10.40;;;2.50;;
9222;SDS011;7557;51.698;3.942;2022-12-29T06:19:04;8.43;;;2.70;;
9222;SDS011;7557;51.698;3.942;2022-12-29T06:21:31;6.63;;;2.00;;
9222;SDS011;7557;51.698;3.942;2022-12-29T06:24:00;13.00;;;3.07;;
9222;SDS011;7557;51.698;3.942;2022-12-29T06:26:27;5.20;;;2.30;;
9222;SDS011;7557;51.698;3.942;2022-12-29T06:28:54;5.07;;;2.00;;
9222;SDS011;7557;51.698;3.942;2022-12-29T06:31:21;12.60;;;2.87;;
9222;SDS011;7557;51.698;3.942;2022-12-29T06:33:49;11.87;;;2.40;;
9222;SDS011;7557;51.698;3.942;2022-12-29T06:36:16;5.97;;;2.53;;
9222;SDS011;7557;51.698;3.942;2022-12-29T06:38:44;7.97;;;3.43;;
9222;SDS011;7557;51.698;3.942;2022-12-29T06:41:13;14.03;;;3.43;;
9222;SDS011;7557;51.698;3.942;2022-12-29T06:43:40;11.07;;;3.70;;
9222;SDS011;7557;51.698;3.942;2022-12-29T06:46:08;12.20;;;3.33;;
9222;SDS011;7557;51.698;3.942;2022-12-29T06:48:36;13.43;;;3.57;;
9222;SDS011;7557;51.698;3.942;2022-12-29T06:51:03;9.17;;;2.60;;
9222;SDS011;7557;51.698;3.942;2022-12-29T06:53:31;8.20;;;2.30;;
9222;SDS011;7557;51.698;3.942;2022-12-29T06:55:58;13.80;;;3.63;;
9222;SDS011;7557;51.698;3.942;2022-12-29T06:58:27;13.53;;;4.10;;
9222;SDS011;7557;51.698;3.942;2022-12-29T07:00:55;11.43;;;3.70;;
9222;SDS011;7557;51.698;3.942;2022-12-29T07:03:23;14.17;;;4.00;;
9222;SDS011;7557;51.698;3.942;2022-12-29T07:05:50;14.17;;;3.70;;
9222;SDS011;7557;51.698;3.942;2022-12-29T07:08:19;8.47;;;3.33;;
9222;SDS011;7557;51.698;3.942;2022-12-29T07:10:46;11.37;;;3.10;;
9222;SDS011;7557;51.698;3.942;2022-12-29T07:13:14;11.17;;;3.33;;
9222;SDS011;7557;51.698;3.942;2022-12-29T07:15:43;12.10;;;3.73;;
9222;SDS011;7557;51.698;3.942;2022-12-29T07:18:10;14.83;;;4.23;;
9222;SDS011;7557;51.698;3.942;2022-12-29T07:20:38;15.67;;;3.87;;
9222;SDS011;7557;51.698;3.942;2022-12-29T07:23:05;10.00;;;3.13;;
9222;SDS011;7557;51.698;3.942;2022-12-29T07:25:32;13.73;;;3.83;;
9222;SDS011;7557;51.698;3.942;2022-12-29T07:28:01;15.90;;;4.30;;
9222;SDS011;7557;51.698;3.942;2022-12-29T07:30:28;10.40;;;3.30;;
9222;SDS011;7557;51.698;3.942;2022-12-29T07:32:57;12.53;;;3.43;;
9222;SDS011;7557;51.698;3.942;2022-12-29T07:35:25;13.33;;;3.63;;
9222;SDS011;7557;51.698;3.942;2022-12-29T07:37:52;15.53;;;4.03;;
9222;SDS011;7557;51.698;3.942;2022-12-29T07:40:20;17.57;;;4.33;;
9222;SDS011;7557;51.698;3.942;2022-12-29T07:42:47;16.17;;;4.03;;
9222;SDS011;7557;51.698;3.942;2022-12-29T07:45:15;14.83;;;2.70;;
9222;SDS011;7557;51.698;3.942;2022-12-29T07:47:42;12.03;;;3.60;;
9222;SDS011;7557;51.698;3.942;2022-12-29T07:50:11;11.20;;;3.60;;
9222;SDS011;7557;51.698;3.942;2022-12-29T07:52:39;11.23;;;3.63;;
9222;SDS011;7557;51.698;3.942;2022-12-29T07:55:06;10.97;;;3.20;;
9222;SDS011;7557;51.698;3.942;2022-12-29T07:57:35;16.33;;;3.77;;
9222;SDS011;7557;51.698;3.942;2022-12-29T08:00:02;15.33;;;3.87;;
9222;SDS011;7557;51.698;3.942;2022-12-29T08:02:30;15.23;;;4.40;;
9222;SDS011;7557;51.698;3.942;2022-12-29T08:04:58;20.90;;;3.83;;
9222;SDS011;7557;51.698;3.942;2022-12-29T08:07:27;16.73;;;3.83;;
9222;SDS011;7557;51.698;3.942;2022-12-29T08:09:54;13.77;;;4.27;;
9222;SDS011;7557;51.698;3.942;2022-12-29T08:12:22;9.20;;;3.77;;
9222;SDS011;7557;51.698;3.942;2022-12-29T08:14:49;17.13;;;3.63;;
9222;SDS011;7557;51.698;3.942;2022-12-29T08:17:17;12.20;;;3.80;;
9222;SDS011;7557;51.698;3.942;2022-12-29T08:19:44;12.67;;;3.87;;
9222;SDS011;7557;51.698;3.942;2022-12-29T08:22:13;16.03;;;3.97;;
9222;SDS011;7557;51.698;3.942;2022-12-29T08:24:42;12.80;;;3.87;;
9222;SDS011;7557;51.698;3.942;2022-12-29T08:27:09;14.43;;;4.23;;
9222;SDS011;7557;51.698;3.942;2022-12-29T08:29:37;13.40;;;3.37;;
9222;SDS011;7557;51.698;3.942;2022-12-29T08:32:04;13.77;;;3.80;;
9222;SDS011;7557;51.698;3.942;2022-12-29T08:34:32;14.47;;;3.10;;
9222;SDS011;7557;51.698;3.942;2022-12-29T08:36:59;8.27;;;3.13;;
9222;SDS011;7557;51.698;3.942;2022-12-29T08:39:27;13.97;;;3.53;;
9222;SDS011;7557;51.698;3.942;2022-12-29T08:41:56;12.93;;;3.03;;
9222;SDS011;7557;51.698;3.942;2022-12-29T08:44:23;7.23;;;2.77;;
9222;SDS011;7557;51.698;3.942;2022-12-29T08:46:51;9.40;;;3.10;;
9222;SDS011;7557;51.698;3.942;2022-12-29T08:49:18;9.40;;;2.93;;
9222;SDS011;7557;51.698;3.942;2022-12-29T08:51:46;13.93;;;3.30;;
9222;SDS011;7557;51.698;3.942;2022-12-29T08:54:13;8.83;;;3.33;;
9222;SDS011;7557;51.698;3.942;2022-12-29T08:56:41;7.70;;;3.00;;
9222;SDS011;7557;51.698;3.942;2022-12-29T08:59:10;6.67;;;1.90;;
9222;SDS011;7557;51.698;3.942;2022-12-29T09:01:37;9.93;;;3.23;;
9222;SDS011;7557;51.698;3.942;2022-12-29T09:04:05;8.17;;;2.50;;
9222;SDS011;7557;51.698;3.942;2022-12-29T09:06:33;10.17;;;3.40;;
9222;SDS011;7557;51.698;3.942;2022-12-29T09:09:00;20.93;;;5.47;;
9222;SDS011;7557;51.698;3.942;2022-12-29T09:11:28;13.77;;;4.00;;
9222;SDS011;7557;51.698;3.942;2022-12-29T09:13:56;17.00;;;4.97;;
9222;SDS011;7557;51.698;3.942;2022-12-29T09:16:25;18.83;;;4.30;;
9222;SDS011;7557;51.698;3.942;2022-12-29T09:18:53;13.93;;;3.63;;
9222;SDS011;7557;51.698;3.942;2022-12-29T09:21:21;18.70;;;4.33;;
9222;SDS011;7557;51.698;3.942;2022-12-29T09:23:48;13.23;;;4.50;;
9222;SDS011;7557;51.698;3.942;2022-12-29T09:26:16;13.77;;;3.67;;
9222;SDS011;7557;51.698;3.942;2022-12-29T09:28:43;16.83;;;4.23;;
9222;SDS011;7557;51.698;3.942;2022-12-29T09:31:12;23.87;;;5.83;;
9222;SDS011;7557;51.698;3.942;2022-12-29T09:33:41;23.30;;;5.07;;
9222;SDS011;7557;51.698;3.942;2022-12-29T09:36:09;24.93;;;6.60;;
9222;SDS011;7557;51.698;3.942;2022-12-29T09:38:36;20.23;;;5.73;;
9222;SDS011;7557;51.698;3.942;2022-12-29T09:41:05;20.30;;;4.80;;
9222;SDS011;7557;51.698;3.942;2022-12-29T09:43:46;38.20;;;5.50;;
9222;SDS011;7557;51.698;3.942;2022-12-29T09:46:29;19.57;;;4.60;;
9222;SDS011;7557;51.698;3.942;2022-12-29T09:49:06;20.87;;;5.23;;
9222;SDS011;7557;51.698;3.942;2022-12-29T09:51:40;26.30;;;5.83;;
9222;SDS011;7557;51.698;3.942;2022-12-29T09:54:19;29.03;;;5.77;;
9222;SDS011;7557;51.698;3.942;2022-12-29T09:56:51;23.70;;;6.03;;
9222;SDS011;7557;51.698;3.942;2022-12-29T09:59:20;26.90;;;7.23;;
9222;SDS011;7557;51.698;3.942;2022-12-29T10:01:51;23.70;;;6.50;;
9222;SDS011;7557;51.698;3.942;2022-12-29T10:04:27;25.73;;;6.57;;
9222;SDS011;7557;51.698;3.942;2022-12-29T10:06:56;22.87;;;7.00;;
9222;SDS011;7557;51.698;3.942;2022-12-29T10:09:30;29.30;;;7.93;;
9222;SDS011;7557;51.698;3.942;2022-12-29T10:12:03;37.03;;;7.67;;
9222;SDS011;7557;51.698;3.942;2022-12-29T10:14:43;28.80;;;7.00;;
9222;SDS011;7557;51.698;3.942;2022-12-29T10:17:20;31.20;;;7.10;;
9222;SDS011;7557;51.698;3.942;2022-12-29T10:20:00;25.17;;;7.30;;
9222;SDS011;7557;51.698;3.942;2022-12-29T10:22:54;32.60;;;9.10;;
9222;SDS011;7557;51.698;3.942;2022-12-29T10:25:39;37.07;;;7.80;;
9222;SDS011;7557;51.698;3.942;2022-12-29T10:28:10;39.43;;;7.90;;
9222;SDS011;7557;51.698;3.942;2022-12-29T10:30:46;22.23;;;6.20;;
9222;SDS011;7557;51.698;3.942;2022-12-29T10:33:15;29.60;;;7.77;;
9222;SDS011;7557;51.698;3.942;2022-12-29T10:35:48;30.33;;;6.10;;
9222;SDS011;7557;51.698;3.942;2022-12-29T10:38:18;27.93;;;6.80;;
9222;SDS011;7557;51.698;3.942;2022-12-29T10:40:53;25.60;;;6.43;;
9222;SDS011;7557;51.698;3.942;2022-12-29T10:43:27;25.73;;;6.37;;
9222;SDS011;7557;51.698;3.942;2022-12-29T10:45:57;24.90;;;5.73;;
9222;SDS011;7557;51.698;3.942;2022-12-29T10:48:30;17.97;;;4.83;;
9222;SDS011;7557;51.698;3.942;2022-12-29T10:51:01;20.60;;;6.27;;
9222;SDS011;7557;51.698;3.942;2022-12-29T10:53:32;26.53;;;6.07;;
9222;SDS011;7557;51.698;3.942;2022-12-29T10:56:05;23.93;;;5.10;;
9222;SDS011;7557;51.698;3.942;2022-12-29T10:58:41;21.67;;;5.30;;
9222;SDS011;7557;51.698;3.942;2022-12-29T11:01:13;23.37;;;4.63;;
9222;SDS011;7557;51.698;3.942;2022-12-29T11:03:48;27.90;;;5.40;;
9222;SDS011;7557;51.698;3.942;2022-12-29T11:06:27;23.03;;;6.10;;
9222;SDS011;7557;51.698;3.942;2022-12-29T11:08:56;25.50;;;5.43;;
9222;SDS011;7557;51.698;3.942;2022-12-29T11:11:28;17.27;;;5.33;;
9222;SDS011;7557;51.698;3.942;2022-12-29T11:14:02;12.03;;;3.43;;
9222;SDS011;7557;51.698;3.942;2022-12-29T11:16:36;15.40;;;4.70;;
9222;SDS011;7557;51.698;3.942;2022-12-29T11:19:04;17.13;;;4.37;;
9222;SDS011;7557;51.698;3.942;2022-12-29T11:21:34;16.27;;;4.03;;
9222;SDS011;7557;51.698;3.942;2022-12-29T11:24:05;19.67;;;4.07;;
9222;SDS011;7557;51.698;3.942;2022-12-29T11:26:46;16.17;;;4.53;;
9222;SDS011;7557;51.698;3.942;2022-12-29T11:29:21;18.67;;;5.47;;
9222;SDS011;7557;51.698;3.942;2022-12-29T11:31:51;13.57;;;4.23;;
9222;SDS011;7557;51.698;3.942;2022-12-29T11:34:21;22.00;;;4.80;;
9222;SDS011;7557;51.698;3.942;2022-12-29T11:36:53;20.47;;;4.57;;
9222;SDS011;7557;51.698;3.942;2022-12-29T11:39:31;22.30;;;4.60;;
9222;SDS011;7557;51.698;3.942;2022-12-29T11:42:05;15.70;;;4.27;;
9222;SDS011;7557;51.698;3.942;2022-12-29T11:44:42;17.30;;;4.40;;
9222;SDS011;7557;51.698;3.942;2022-12-29T11:47:12;25.87;;;5.00;;
9222;SDS011;7557;51.698;3.942;2022-12-29T11:49:52;19.37;;;4.67;;
9222;SDS011;7557;51.698;3.942;2022-12-29T11:52:26;17.63;;;4.50;;
9222;SDS011;7557;51.698;3.942;2022-12-29T11:54:56;20.50;;;5.37;;
9222;SDS011;7557;51.698;3.942;2022-12-29T11:57:25;19.23;;;4.73;;
9222;SDS011;7557;51.698;3.942;2022-12-29T11:59:54;18.97;;;4.50;;
9222;SDS011;7557;51.698;3.942;2022-12-29T12:05:15;16.03;;;5.07;;
9222;SDS011;7557;51.698;3.942;2022-12-29T12:07:54;9.00;;;3.53;;
9222;SDS011;7557;51.698;3.942;2022-12-29T12:10:27;12.57;;;3.30;;
9222;SDS011;7557;51.698;3.942;2022-12-29T12:13:01;15.70;;;4.43;;
9222;SDS011;7557;51.698;3.942;2022-12-29T12:15:35;11.77;;;3.83;;
9222;SDS011;7557;51.698;3.942;2022-12-29T12:18:08;18.57;;;4.03;;
9222;SDS011;7557;51.698;3.942;2022-12-29T12:20:45;13.83;;;4.37;;
9222;SDS011;7557;51.698;3.942;2022-12-29T12:23:28;16.17;;;3.80;;
9222;SDS011;7557;51.698;3.942;2022-12-29T12:26:04;18.10;;;4.10;;
9222;SDS011;7557;51.698;3.942;2022-12-29T12:28:40;16.50;;;3.77;;
9222;SDS011;7557;51.698;3.942;2022-12-29T12:31:17;10.83;;;3.87;;
9222;SDS011;7557;51.698;3.942;2022-12-29T12:33:53;11.00;;;4.57;;
9222;SDS011;7557;51.698;3.942;2022-12-29T12:36:41;18.80;;;3.60;;
9222;SDS011;7557;51.698;3.942;2022-12-29T12:39:29;14.47;;;3.57;;
9222;SDS011;7557;51.698;3.942;2022-12-29T12:42:06;14.03;;;4.30;;
9222;SDS011;7557;51.698;3.942;2022-12-29T12:44:48;15.30;;;4.57;;
9222;SDS011;7557;51.698;3.942;2022-12-29T12:47:32;9.20;;;3.37;;
9222;SDS011;7557;51.698;3.942;2022-12-29T12:50:22;6.23;;;2.63;;
9222;SDS011;7557;51.698;3.942;2022-12-29T12:53:03;8.47;;;2.23;;
9222;SDS011;7557;51.698;3.942;2022-12-29T12:55:52;5.07;;;2.37;;
9222;SDS011;7557;51.698;3.942;2022-12-29T12:58:39;10.77;;;3.40;;
9222;SDS011;7557;51.698;3.942;2022-12-29T13:01:18;9.83;;;2.90;;
9222;SDS011;7557;51.698;3.942;2022-12-29T13:04:05;10.07;;;3.40;;
9222;SDS011;7557;51.698;3.942;2022-12-29T13:06:44;16.43;;;3.93;;
9222;SDS011;7557;51.698;3.942;2022-12-29T13:09:33;13.60;;;3.53;;
9222;SDS011;7557;51.698;3.942;2022-12-29T13:12:18;12.70;;;2.93;;
9222;SDS011;7557;51.698;3.942;2022-12-29T13:14:57;8.37;;;2.50;;
9222;SDS011;7557;51.698;3.942;2022-12-29T13:17:36;10.23;;;2.80;;
9222;SDS011;7557;51.698;3.942;2022-12-29T13:20:12;8.40;;;2.20;;
9222;SDS011;7557;51.698;3.942;2022-12-29T13:22:51;9.90;;;2.13;;
9222;SDS011;7557;51.698;3.942;2022-12-29T13:25:27;8.43;;;2.67;;
9222;SDS011;7557;51.698;3.942;2022-12-29T13:28:02;13.40;;;3.23;;
9222;SDS011;7557;51.698;3.942;2022-12-29T13:30:38;5.17;;;2.10;;
9222;SDS011;7557;51.698;3.942;2022-12-29T13:33:12;9.23;;;2.37;;
9222;SDS011;7557;51.698;3.942;2022-12-29T13:35:50;9.33;;;4.13;;
9222;SDS011;7557;51.698;3.942;2022-12-29T13:38:22;8.47;;;3.20;;
9222;SDS011;7557;51.698;3.942;2022-12-29T13:40:56;9.87;;;2.23;;
9222;SDS011;7557;51.698;3.942;2022-12-29T13:43:29;9.87;;;2.43;;
9222;SDS011;7557;51.698;3.942;2022-12-29T13:46:00;8.63;;;2.80;;
9222;SDS011;7557;51.698;3.942;2022-12-29T13:48:35;14.03;;;2.43;;
9222;SDS011;7557;51.698;3.942;2022-12-29T13:51:07;7.93;;;2.43;;
9222;SDS011;7557;51.698;3.942;2022-12-29T13:53:39;10.00;;;2.23;;
9222;SDS011;7557;51.698;3.942;2022-12-29T13:56:16;12.70;;;2.60;;
9222;SDS011;7557;51.698;3.942;2022-12-29T13:58:52;12.40;;;2.40;;
9222;SDS011;7557;51.698;3.942;2022-12-29T14:01:26;11.07;;;2.80;;
9222;SDS011;7557;51.698;3.942;2022-12-29T14:03:57;7.00;;;2.20;;
9222;SDS011;7557;51.698;3.942;2022-12-29T14:06:26;7.27;;;1.93;;
9222;SDS011;7557;51.698;3.942;2022-12-29T14:08:55;6.73;;;2.40;;
9222;SDS011;7557;51.698;3.942;2022-12-29T14:11:28;11.73;;;2.70;;
9222;SDS011;7557;51.698;3.942;2022-12-29T14:14:09;5.67;;;2.10;;
9222;SDS011;7557;51.698;3.942;2022-12-29T14:16:38;7.37;;;2.40;;
9222;SDS011;7557;51.698;3.942;2022-12-29T14:19:12;5.67;;;2.77;;
9222;SDS011;7557;51.698;3.942;2022-12-29T14:21:49;5.10;;;2.27;;
9222;SDS011;7557;51.698;3.942;2022-12-29T14:24:38;13.23;;;2.20;;
9222;SDS011;7557;51.698;3.942;2022-12-29T14:33:27;10.10;;;2.63;;
9222;SDS011;7557;51.698;3.942;2022-12-29T14:35:56;11.23;;;2.73;;
9222;SDS011;7557;51.698;3.942;2022-12-29T14:38:44;6.53;;;3.00;;
9222;SDS011;7557;51.698;3.942;2022-12-29T14:41:16;7.63;;;3.33;;
9222;SDS011;7557;51.698;3.942;2022-12-29T14:43:54;11.53;;;2.53;;
9222;SDS011;7557;51.698;3.942;2022-12-29T14:49:21;8.13;;;2.30;;
9222;SDS011;7557;51.698;3.942;2022-12-29T14:51:52;4.87;;;2.30;;
9222;SDS011;7557;51.698;3.942;2022-12-29T14:57:14;5.97;;;2.33;;
9222;SDS011;7557;51.698;3.942;2022-12-29T14:59:46;5.67;;;2.13;;
9222;SDS011;7557;51.698;3.942;2022-12-29T15:02:16;7.00;;;2.50;;
9222;SDS011;7557;51.698;3.942;2022-12-29T15:04:48;8.00;;;1.97;;
9222;SDS011;7557;51.698;3.942;2022-12-29T15:07:16;8.57;;;2.63;;
9222;SDS011;7557;51.698;3.942;2022-12-29T15:09:46;5.70;;;1.73;;
9222;SDS011;7557;51.698;3.942;2022-12-29T15:12:21;4.23;;;1.97;;
9222;SDS011;7557;51.698;3.942;2022-12-29T15:14:58;8.33;;;2.27;;
9222;SDS011;7557;51.698;3.942;2022-12-29T15:17:28;3.90;;;1.60;;
9222;SDS011;7557;51.698;3.942;2022-12-29T15:19:59;7.00;;;2.00;;
9222;SDS011;7557;51.698;3.942;2022-12-29T15:22:41;7.50;;;3.73;;
9222;SDS011;7557;51.698;3.942;2022-12-29T15:25:12;7.30;;;2.03;;
9222;SDS011;7557;51.698;3.942;2022-12-29T15:27:43;5.60;;;1.93;;
9222;SDS011;7557;51.698;3.942;2022-12-29T15:30:16;8.77;;;2.73;;
9222;SDS011;7557;51.698;3.942;2022-12-29T15:32:44;7.87;;;1.93;;
9222;SDS011;7557;51.698;3.942;2022-12-29T15:35:24;3.77;;;1.90;;
9222;SDS011;7557;51.698;3.942;2022-12-29T15:37:55;6.53;;;2.33;;
9222;SDS011;7557;51.698;3.942;2022-12-29T15:40:24;4.37;;;2.13;;
9222;SDS011;7557;51.698;3.942;2022-12-29T15:45:50;7.17;;;2.53;;
9222;SDS011;7557;51.698;3.942;2022-12-29T15:48:21;10.17;;;2.47;;
9222;SDS011;7557;51.698;3.942;2022-12-29T15:50:52;13.40;;;3.20;;
9222;SDS011;7557;51.698;3.942;2022-12-29T15:53:21;10.13;;;3.00;;
9222;SDS011;7557;51.698;3.942;2022-12-29T15:55:53;7.60;;;3.07;;
9222;SDS011;7557;51.698;3.942;2022-12-29T15:58:22;12.60;;;3.13;;
9222;SDS011;7557;51.698;3.942;2022-12-29T16:00:51;9.03;;;2.53;;